Time;durP1;ratioP1;P1;durP2;ratioP2;P2;SDS_P1;SDS_P2;PMS_P1;PMS_P2;Temp;Humidity;BMP_temperature;BMP_pressure;BME280_temperature;BME280_humidity;BME280_pressure;Samples;Min_cycle;Max_cycle;Signal;HPM_P1;HPM_P2
2023/10/10 00:02:04;;;;;;;;;;;;;;;12.94;58.31;99616.31;5011832;28;19921;-72
2023/10/10 00:04:32;;;;;;;;;;;;;;;13.08;57.94;99621.59;5011789;28;19913;-72
2023/10/10 00:06:58;;;;;;;;;;;;;;;12.80;58.39;99611.81;5011377;28;19928;-72
2023/10/10 00:09:23;;;;;;;;;;;;;;;12.71;58.91;99609.13;5010273;28;19917;-72
2023/10/10 00:11:51;;;;;;;;;;;;;;;12.53;58.89;99607.63;5009975;28;19918;-72
2023/10/10 00:14:19;;;;;;;;;;;;;;;12.53;59.04;99599.22;5020158;28;20034;-72
2023/10/10 00:16:48;;;;;;;;;;;;;;;12.63;58.49;99594.00;5013259;28;20300;-73
2023/10/10 00:19:19;;;;;;;;;;;;;;;12.33;59.40;99593.31;5015603;28;19914;-73
2023/10/10 00:21:45;;;;;;;;;;;;;;;12.44;59.36;99588.94;5015498;28;19967;-73
2023/10/10 00:24:12;;;;;;;;;;;;;;;12.14;60.40;99593.81;5015565;28;19917;-72
2023/10/10 00:26:42;;;;;;;;;;;;;;;12.05;60.80;99593.88;5014925;28;19928;-73
2023/10/10 00:29:08;;;;;;;;;;;;;;;12.16;60.48;99595.09;5015217;28;20009;-72
2023/10/10 00:31:34;;;;;;;;;;;;;;;12.42;59.81;99580.00;4996839;28;20020;-72
2023/10/10 00:33:59;;;;;;;;;;;;;;;12.49;59.64;99585.91;4995790;28;20389;-72
2023/10/10 00:36:33;;;;;;;;;;;;;;;12.68;58.99;99580.91;5004993;28;19928;-73
2023/10/10 00:39:06;;;;;;;;;;;;;;;12.74;59.05;99574.75;5014716;28;19940;-73
2023/10/10 00:41:31;;;;;;;;;;;;;;;12.89;58.40;99570.44;5015031;28;20008;-73
2023/10/10 00:43:56;;;;;;;;;;;;;;;13.07;57.90;99556.19;5014661;28;19993;-73
2023/10/10 00:46:25;;;;;;;;;;;;;;;13.24;57.90;99557.94;5008778;28;19979;-72
2023/10/10 00:48:59;;;;;;;;;;;;;;;13.44;57.07;99552.59;5014388;28;19924;-72
2023/10/10 00:51:29;;;;;;;;;;;;;;;13.44;56.61;99547.78;5010213;28;19922;-72
2023/10/10 00:54:09;;;;;;;;;;;;;;;13.42;56.79;99555.72;4995566;28;19913;-72
2023/10/10 00:56:35;;;;;;;;;;;;;;;13.43;56.55;99550.94;5021424;28;19921;-73
2023/10/10 00:59:03;;;;;;;;;;;;;;;13.35;56.85;99549.88;5014804;28;19967;-73
2023/10/10 01:01:28;;;;;;;;;;;;;;;13.09;57.81;99545.41;5000868;28;20376;-73
2023/10/10 01:03:54;;;;;;;;;;;;;;;13.22;57.40;99542.63;5012236;28;19924;-73
2023/10/10 01:06:26;;;;;;;;;;;;;;;12.95;58.35;99547.75;5014506;28;19921;-73
2023/10/10 01:08:55;;;;;;;;;;;;;;;12.53;60.17;99545.91;5014685;28;19914;-73
2023/10/10 01:11:20;;;;;;;;;;;;;;;12.72;59.80;99542.56;5014735;28;20000;-73
2023/10/10 01:13:46;;;;;;;;;;;;;;;13.04;58.43;99538.06;5014293;28;20004;-72
2023/10/10 01:16:12;;;;;;;;;;;;;;;12.98;58.42;99542.25;5028247;28;20023;-73
2023/10/10 01:18:51;;;;;;;;;;;;;;;12.95;58.79;99550.56;4995321;28;19976;-73
2023/10/10 01:21:43;;;;;;;;;;;;;;;12.98;58.67;99556.31;4994991;28;19921;-73
2023/10/10 01:24:11;;;;;;;;;;;;;;;12.56;59.91;99553.66;4994738;28;19921;-73
2023/10/10 01:26:37;;;;;;;;;;;;;;;12.71;59.79;99546.53;5004903;28;19928;-73
2023/10/10 01:29:25;;;;;;;;;;;;;;;12.46;60.51;99550.13;5012618;28;20000;-73
2023/10/10 01:31:53;;;;;;;;;;;;;;;12.40;60.51;99548.69;5012320;28;19927;-73
2023/10/10 01:34:33;;;;;;;;;;;;;;;12.30;60.92;99549.13;5004467;28;19917;-73
2023/10/10 01:36:59;;;;;;;;;;;;;;;12.62;60.00;99549.44;5006005;28;20388;-73
2023/10/10 01:39:34;;;;;;;;;;;;;;;12.76;59.41;99549.16;5014050;28;19920;-73
2023/10/10 01:42:00;;;;;;;;;;;;;;;13.06;58.55;99544.16;5013999;28;19917;-73
2023/10/10 01:44:27;;;;;;;;;;;;;;;13.26;57.85;99549.19;5013277;28;19917;-73
2023/10/10 01:46:53;;;;;;;;;;;;;;;13.42;57.83;99563.34;5013854;28;19944;-73
2023/10/10 01:49:21;;;;;;;;;;;;;;;13.53;57.08;99558.91;5012498;28;19917;-73
2023/10/10 01:51:53;;;;;;;;;;;;;;;13.26;58.41;99568.84;5014017;28;19914;-73
2023/10/10 01:54:19;;;;;;;;;;;;;;;13.28;58.13;99567.34;5013784;28;19913;-73
2023/10/10 01:56:45;;;;;;;;;;;;;;;13.53;58.37;99560.91;5013703;28;20339;-73
2023/10/10 01:59:13;;;;;;;;;;;;;;;13.69;57.50;99567.41;5013036;28;20398;-73
2023/10/10 02:01:40;;;;;;;;;;;;;;;13.64;57.88;99569.69;5013762;28;19972;-73
2023/10/10 02:04:07;;;;;;;;;;;;;;;13.53;57.67;99569.31;5012019;28;20319;-73
2023/10/10 02:06:35;;;;;;;;;;;;;;;13.44;58.77;99564.63;5012116;28;20388;-73
2023/10/10 02:09:27;;;;;;;;;;;;;;;13.70;57.30;99565.44;5013603;28;19913;-73
2023/10/10 02:11:56;;;;;;;;;;;;;;;13.59;57.84;99570.75;5013371;28;19918;-72
2023/10/10 02:14:25;;;;;;;;;;;;;;;13.26;59.36;99571.66;5012591;28;19926;-73
2023/10/10 02:16:54;;;;;;;;;;;;;;;13.23;59.37;99578.78;5013393;28;19917;-73
2023/10/10 02:19:57;;;;;;;;;;;;;;;13.55;58.29;99570.63;5013364;28;19921;-73
2023/10/10 02:22:33;;;;;;;;;;;;;;;13.74;57.11;99574.78;4997643;28;20371;-72
2023/10/10 02:25:37;;;;;;;;;;;;;;;13.85;56.48;99570.31;4993644;28;19914;-73
2023/10/10 02:30:45;;;;;;;;;;;;;;;13.88;56.75;99564.00;4972766;28;19921;-72
2023/10/10 02:38:18;;;;;;;;;;;;;;;13.50;58.46;99565.22;5008620;28;19918;-72
2023/10/10 02:40:50;;;;;;;;;;;;;;;13.43;58.69;99571.41;4992776;28;19924;-73
2023/10/10 02:43:33;;;;;;;;;;;;;;;13.24;59.47;99579.63;5006700;28;20446;-73
2023/10/10 02:45:58;;;;;;;;;;;;;;;12.98;60.61;99580.75;5012720;28;20392;-73
2023/10/10 02:48:26;;;;;;;;;;;;;;;12.75;61.41;99575.56;5011543;28;20012;-73
2023/10/10 02:50:52;;;;;;;;;;;;;;;12.87;61.01;99566.34;5008044;28;19946;-73
2023/10/10 02:53:19;;;;;;;;;;;;;;;12.62;62.41;99580.31;4991819;28;19969;-73
2023/10/10 02:55:50;;;;;;;;;;;;;;;12.54;62.36;99586.84;4994288;28;20367;-73
2023/10/10 02:58:22;;;;;;;;;;;;;;;12.64;62.13;99580.78;5011448;28;20394;-73
2023/10/10 03:00:52;;;;;;;;;;;;;;;12.72;61.80;99577.06;5027811;28;19914;-72
2023/10/10 03:03:20;;;;;;;;;;;;;;;12.68;61.56;99576.13;5012724;28;19914;-73
2023/10/10 03:05:51;;;;;;;;;;;;;;;12.90;60.77;99588.09;5012123;28;19928;-73
2023/10/10 03:08:26;;;;;;;;;;;;;;;12.91;60.60;99578.50;5012840;28;19996;-73
2023/10/10 03:10:55;;;;;;;;;;;;;;;12.99;60.20;99588.81;5007969;28;19920;-72
2023/10/10 03:24:29;;;;;;;;;;;;;;;13.15;60.55;99585.31;5012558;28;19970;-73
2023/10/10 03:27:36;;;;;;;;;;;;;;;13.28;60.09;99594.59;5007407;28;20009;-73
2023/10/10 03:29:47;;;;;;;;;;;;;;;13.18;61.03;99607.91;4992455;28;20413;-73
2023/10/10 03:32:31;;;;;;;;;;;;;;;13.16;61.55;99609.44;5007520;28;19962;-73
2023/10/10 03:34:57;;;;;;;;;;;;;;;13.08;61.90;99613.19;5007528;28;19918;-73
2023/10/10 05:23:54;;;;;;;;;;;;;;;12.90;63.91;99653.50;5008312;28;19925;-74
2023/10/10 05:26:20;;;;;;;;;;;;;;;12.86;64.18;99657.34;5009280;28;19922;-71
2023/10/10 05:28:46;;;;;;;;;;;;;;;12.88;64.01;99660.63;5013483;28;19925;-73
2023/10/10 05:31:11;;;;;;;;;;;;;;;12.87;63.81;99673.00;5012129;28;19922;-73
2023/10/10 05:33:36;;;;;;;;;;;;;;;13.11;63.39;99665.81;5012371;28;19924;-73
2023/10/10 05:36:06;;;;;;;;;;;;;;;13.08;63.28;99672.94;4994581;28;19918;-72
2023/10/10 05:38:32;;;;;;;;;;;;;;;13.05;63.50;99659.59;5006534;28;19917;-74
2023/10/10 05:40:59;;;;;;;;;;;;;;;13.11;62.69;99669.47;5013888;28;19960;-74
2023/10/10 05:43:33;;;;;;;;;;;;;;;13.15;63.10;99680.81;5001772;28;19925;-74
2023/10/10 05:45:59;;;;;;;;;;;;;;;13.08;63.63;99689.78;5012487;28;19979;-74
2023/10/10 05:48:26;;;;;;;;;;;;;;;13.10;63.89;99695.06;5011425;28;20347;-74
2023/10/10 05:50:51;;;;;;;;;;;;;;;13.17;62.90;99693.34;5011176;28;19920;-74
2023/10/10 05:53:16;;;;;;;;;;;;;;;13.41;62.53;99682.50;5011003;28;20011;-74
2023/10/10 05:55:43;;;;;;;;;;;;;;;13.45;62.22;99686.28;5011924;28;19921;-74
2023/10/10 05:58:08;;;;;;;;;;;;;;;13.54;61.65;99687.00;5010670;28;19918;-74
2023/10/10 06:00:37;;;;;;;;;;;;;;;13.71;61.35;99685.13;5011909;28;19918;-74
2023/10/10 06:03:05;;;;;;;;;;;;;;;12.83;64.82;99683.31;5015256;28;20437;-74
2023/10/10 06:05:30;;;;;;;;;;;;;;;13.18;65.03;99680.94;5009511;28;23506;-73
2023/10/10 06:07:58;;;;;;;;;;;;;;;13.43;63.26;99695.03;5011712;28;20288;-74
2023/10/10 06:10:28;;;;;;;;;;;;;;;13.57;62.98;99680.69;5010395;28;19921;-74
2023/10/10 06:12:55;;;;;;;;;;;;;;;13.74;62.50;99687.22;5012205;28;19921;-74
2023/10/10 06:15:20;;;;;;;;;;;;;;;13.68;63.34;99691.47;5006741;28;19924;-74
2023/10/10 06:17:46;;;;;;;;;;;;;;;13.81;63.06;99675.41;5009956;28;19921;-74
2023/10/10 06:20:21;;;;;;;;;;;;;;;13.82;63.28;99700.34;5011885;28;20377;-74
2023/10/10 06:22:50;;;;;;;;;;;;;;;13.97;63.92;99689.56;5011471;28;19925;-74
2023/10/10 06:25:18;;;;;;;;;;;;;;;14.10;63.56;99687.56;5010299;28;20004;-74
2023/10/10 06:27:54;;;;;;;;;;;;;;;14.20;63.33;99691.88;5012906;28;19917;-74
2023/10/10 06:30:19;;;;;;;;;;;;;;;14.43;62.04;99684.56;5011887;28;19917;-74
2023/10/10 06:32:46;;;;;;;;;;;;;;;14.34;63.13;99675.44;5009186;28;20313;-74
2023/10/10 06:37:43;;;;;;;;;;;;;;;14.64;62.54;99679.91;5006383;28;20369;-74
2023/10/10 06:40:09;;;;;;;;;;;;;;;14.84;61.83;99687.38;5008206;28;19925;-74
2023/10/10 06:42:39;;;;;;;;;;;;;;;14.88;61.80;99681.84;5009941;28;19914;-74
2023/10/10 06:45:11;;;;;;;;;;;;;;;14.91;62.57;99680.31;5010088;28;19917;-74
2023/10/10 06:47:39;;;;;;;;;;;;;;;15.02;62.45;99672.97;5010504;28;19940;-74
2023/10/10 06:50:10;;;;;;;;;;;;;;;15.13;62.75;99685.34;5006562;28;20323;-74
2023/10/10 06:52:36;;;;;;;;;;;;;;;15.24;62.25;99680.03;5010364;28;20008;-74
2023/10/10 06:55:10;;;;;;;;;;;;;;;15.39;62.23;99683.22;5009960;28;20000;-73
2023/10/10 06:57:37;;;;;;;;;;;;;;;15.57;61.95;99684.50;5004201;28;19922;-72
2023/10/10 07:00:28;;;;;;;;;;;;;;;15.76;61.36;99671.66;5009409;28;20408;-72
2023/10/10 07:02:54;;;;;;;;;;;;;;;15.96;60.78;99680.22;5010635;28;20360;-71
2023/10/10 07:05:19;;;;;;;;;;;;;;;16.03;60.71;99682.38;5009648;28;19902;-70
2023/10/10 07:07:46;;;;;;;;;;;;;;;16.24;60.45;99684.88;5007206;28;20019;-69
2023/10/10 07:10:24;;;;;;;;;;;;;;;16.38;59.50;99688.00;5008785;28;19989;-68
2023/10/10 07:12:49;;;;;;;;;;;;;;;16.68;57.67;99684.63;5007013;28;20000;-68
2023/10/10 07:15:14;;;;;;;;;;;;;;;16.83;57.54;99682.91;5010361;28;20552;-66
2023/10/10 07:17:40;;;;;;;;;;;;;;;16.91;58.07;99685.88;5026578;28;19925;-65
2023/10/10 07:22:34;;;;;;;;;;;;;;;17.23;56.74;99695.00;5013881;28;19918;-68
2023/10/10 07:25:10;;;;;;;;;;;;;;;17.33;57.51;99701.22;5010986;28;20008;-67
2023/10/10 07:27:43;;;;;;;;;;;;;;;17.32;56.76;99703.25;5007695;28;19929;-69
2023/10/10 07:30:16;;;;;;;;;;;;;;;17.54;55.30;99703.63;5009995;28;19917;-70
2023/10/10 07:32:42;;;;;;;;;;;;;;;17.86;53.69;99711.84;5008735;28;20466;-68
2023/10/10 07:35:14;;;;;;;;;;;;;;;17.98;53.60;99701.53;5027379;28;19920;-66
2023/10/10 07:37:41;;;;;;;;;;;;;;;18.13;52.93;99700.56;5010796;28;19914;-69
2023/10/10 07:42:37;;;;;;;;;;;;;;;18.45;51.98;99696.56;5011002;28;19917;-69
2023/10/10 07:45:03;;;;;;;;;;;;;;;18.62;51.57;99695.16;5010184;28;19925;-67
2023/10/10 07:48:20;;;;;;;;;;;;;;;18.73;51.49;99696.13;5009069;28;19921;-67
2023/10/10 07:50:26;;;;;;;;;;;;;;;18.85;51.18;99694.25;5009544;28;20363;-70
2023/10/10 07:52:51;;;;;;;;;;;;;;;18.94;50.35;99694.75;5011672;28;19917;-70
2023/10/10 07:55:17;;;;;;;;;;;;;;;19.04;50.64;99702.63;5010363;28;19925;-72
2023/10/10 07:57:59;;;;;;;;;;;;;;;19.16;50.36;99695.84;5011595;28;19921;-66
2023/10/10 08:00:46;;;;;;;;;;;;;;;19.32;50.11;99698.44;5022861;28;19937;-66
2023/10/10 08:03:13;;;;;;;;;;;;;;;19.52;50.23;99701.06;5010767;28;19917;-66
2023/10/10 08:05:40;;;;;;;;;;;;;;;19.56;50.08;99698.28;5011501;28;19956;-66
2023/10/10 08:08:05;;;;;;;;;;;;;;;19.60;49.74;99702.75;5011220;28;19921;-68
2023/10/10 08:10:40;;;;;;;;;;;;;;;19.73;49.89;99689.09;5011916;28;19913;-68
2023/10/10 08:13:10;;;;;;;;;;;;;;;19.96;49.42;99695.78;5011194;28;20404;-67
2023/10/10 08:19:04;;;;;;;;;;;;;;;20.53;47.43;99689.66;5007410;28;19918;-69
2023/10/10 08:23:31;;;;;;;;;;;;;;;20.83;47.04;99685.75;5011656;28;19920;-68
2023/10/10 08:25:57;;;;;;;;;;;;;;;20.77;47.01;99685.28;5013841;28;19978;-69
2023/10/10 08:28:22;;;;;;;;;;;;;;;20.83;47.12;99687.81;5011025;28;19924;-69
2023/10/10 08:30:48;;;;;;;;;;;;;;;20.82;47.01;99684.13;5010303;28;20303;-69
2023/10/10 08:33:14;;;;;;;;;;;;;;;20.81;46.89;99685.34;5010042;28;20479;-69
2023/10/10 08:35:39;;;;;;;;;;;;;;;20.89;46.68;99678.47;4997082;28;19956;-69
2023/10/10 08:38:06;;;;;;;;;;;;;;;21.06;46.60;99680.94;5010019;28;19917;-69
2023/10/10 08:40:34;;;;;;;;;;;;;;;21.09;46.29;99680.97;5013444;28;20311;-71
2023/10/10 08:43:02;;;;;;;;;;;;;;;21.13;45.99;99684.66;5006808;28;19975;-70
2023/10/10 08:45:39;;;;;;;;;;;;;;;21.18;46.12;99687.09;5009084;28;19917;-69
2023/10/10 08:48:09;;;;;;;;;;;;;;;21.20;45.83;99686.69;5008330;28;19996;-69
2023/10/10 08:50:35;;;;;;;;;;;;;;;21.33;45.89;99695.63;5005965;28;20519;-68
2023/10/10 08:53:02;;;;;;;;;;;;;;;21.50;45.25;99687.56;5008935;28;19917;-72
2023/10/10 08:55:28;;;;;;;;;;;;;;;21.55;44.90;99684.28;5012628;28;19922;-73
2023/10/10 08:57:57;;;;;;;;;;;;;;;21.58;44.88;99697.72;5009511;28;19926;-68
2023/10/10 09:00:26;;;;;;;;;;;;;;;21.65;44.53;99688.34;5011583;28;19951;-67
2023/10/10 09:02:52;;;;;;;;;;;;;;;21.73;44.20;99685.16;5011952;28;20380;-66
2023/10/10 09:05:19;;;;;;;;;;;;;;;21.96;43.95;99680.25;5009946;28;19928;-71
2023/10/10 09:07:46;;;;;;;;;;;;;;;22.04;43.74;99692.44;5015343;28;19917;-68
2023/10/10 09:10:13;;;;;;;;;;;;;;;22.23;43.45;99688.34;5009193;28;20376;-68
2023/10/10 09:12:52;;;;;;;;;;;;;;;22.39;42.91;99691.59;5012535;28;20375;-66
2023/10/10 09:15:19;;;;;;;;;;;;;;;22.42;43.16;99696.47;5009882;28;19975;-68
2023/10/10 09:17:45;;;;;;;;;;;;;;;22.38;43.08;99700.53;5011994;28;20412;-66
2023/10/10 09:20:32;;;;;;;;;;;;;;;22.26;43.55;99705.44;5010174;28;19921;-66
2023/10/10 09:23:11;;;;;;;;;;;;;;;22.19;43.52;99704.66;5008419;28;20335;-66
2023/10/10 09:25:48;;;;;;;;;;;;;;;22.12;43.54;99697.72;5012909;28;19918;-68
2023/10/10 09:28:15;;;;;;;;;;;;;;;21.94;43.49;99696.94;5012706;28;19924;-68
2023/10/10 09:30:45;;;;;;;;;;;;;;;22.15;43.11;99705.47;5010969;28;20446;-67
2023/10/10 09:33:30;;;;;;;;;;;;;;;22.03;43.40;99703.03;5008865;28;19917;-66
2023/10/10 09:36:09;;;;;;;;;;;;;;;21.99;43.17;99697.34;5010989;28;19921;-70
2023/10/10 09:38:48;;;;;;;;;;;;;;;21.90;43.47;99694.09;5006870;28;19924;-67
2023/10/10 09:41:15;;;;;;;;;;;;;;;21.96;43.39;99701.03;5010462;28;19924;-69
2023/10/10 09:50:27;;;;;;;;;;;;;;;22.14;43.52;99688.78;4997558;28;19971;-74
2023/10/10 09:52:50;;;;;;;;;;;;;;;22.27;43.63;99694.88;5008855;28;19925;-77
2023/10/10 09:57:43;;;;;;;;;;;;;;;22.54;43.37;99680.16;5004474;28;20012;-75
2023/10/10 10:00:15;;;;;;;;;;;;;;;22.68;42.46;99687.84;5007956;28;20016;-76
2023/10/10 10:02:48;;;;;;;;;;;;;;;22.66;42.34;99688.28;5009033;28;20257;-75
2023/10/10 10:05:17;;;;;;;;;;;;;;;22.46;42.88;99692.78;5007647;28;19921;-75
2023/10/10 10:07:57;;;;;;;;;;;;;;;22.53;43.68;99684.25;5015015;28;20016;-75
2023/10/10 10:10:33;;;;;;;;;;;;;;;22.40;43.72;99689.53;5005563;28;20008;-82
2023/10/10 10:13:13;;;;;;;;;;;;;;;22.56;43.15;99677.72;5005735;28;19921;-74
2023/10/10 10:15:48;;;;;;;;;;;;;;;22.56;43.38;99677.72;5010746;28;20009;-78
2023/10/10 10:18:18;;;;;;;;;;;;;;;22.65;43.11;99674.41;5011318;28;19917;-78
2023/10/10 10:23:25;;;;;;;;;;;;;;;22.80;42.26;99678.03;5006046;28;19925;-77
2023/10/10 10:25:54;;;;;;;;;;;;;;;22.68;42.76;99679.28;5010048;28;19975;-77
2023/10/10 10:28:28;;;;;;;;;;;;;;;22.43;42.52;99669.59;5000965;28;19918;-76
2023/10/10 10:30:54;;;;;;;;;;;;;;;22.63;42.76;99662.63;5008347;28;20474;-76
2023/10/10 10:33:20;;;;;;;;;;;;;;;22.72;44.12;99663.78;5004428;28;20038;-77
2023/10/10 10:35:56;;;;;;;;;;;;;;;22.57;42.83;99662.25;5005243;28;19937;-77
2023/10/10 10:38:22;;;;;;;;;;;;;;;22.46;42.80;99667.97;5009826;28;19918;-77
2023/10/10 10:40:48;;;;;;;;;;;;;;;22.12;43.24;99671.28;5010172;28;19925;-77
2023/10/10 10:43:21;;;;;;;;;;;;;;;22.19;43.65;99668.41;5008286;28;20384;-77
2023/10/10 10:46:11;;;;;;;;;;;;;;;22.12;43.49;99668.44;5008740;28;19937;-77
2023/10/10 10:48:39;;;;;;;;;;;;;;;22.38;43.73;99660.66;5024310;28;20060;-77
2023/10/10 10:51:22;;;;;;;;;;;;;;;22.19;43.75;99664.75;5021739;28;19926;-76
2023/10/10 10:53:51;;;;;;;;;;;;;;;22.15;43.42;99670.47;5003952;28;19925;-76
2023/10/10 11:01:21;;;;;;;;;;;;;;;21.85;44.10;99674.59;5007273;28;20841;-76
2023/10/10 11:03:51;;;;;;;;;;;;;;;21.79;44.43;99671.34;5008468;28;19921;-76
2023/10/10 11:06:20;;;;;;;;;;;;;;;21.70;44.69;99668.88;5007159;28;19940;-76
2023/10/10 11:11:28;;;;;;;;;;;;;;;21.66;44.96;99675.75;5004335;28;19974;-75
2023/10/10 11:13:54;;;;;;;;;;;;;;;21.60;45.28;99675.38;5006608;28;19949;-75
2023/10/10 11:16:24;;;;;;;;;;;;;;;21.58;45.14;99672.09;5007450;28;19932;-76
2023/10/10 11:18:57;;;;;;;;;;;;;;;21.68;45.28;99677.00;5007831;28;20024;-76
2023/10/10 11:21:28;;;;;;;;;;;;;;;21.83;45.18;99671.31;5006029;28;19929;-76
2023/10/10 11:23:59;;;;;;;;;;;;;;;21.84;44.81;99667.25;5008051;28;20006;-76
2023/10/10 11:26:33;;;;;;;;;;;;;;;21.80;45.01;99670.13;5003874;28;19928;-76
2023/10/10 11:28:59;;;;;;;;;;;;;;;21.91;45.05;99670.09;5008296;28;20323;-76
2023/10/10 11:31:24;;;;;;;;;;;;;;;22.14;44.51;99660.28;5004187;28;19925;-76
2023/10/10 11:33:56;;;;;;;;;;;;;;;21.94;44.58;99663.56;5006843;28;19925;-76
2023/10/10 11:36:29;;;;;;;;;;;;;;;22.00;45.03;99672.50;5021399;28;19921;-76
2023/10/10 11:38:56;;;;;;;;;;;;;;;22.00;45.32;99661.94;5004867;28;20371;-76
2023/10/10 11:41:30;;;;;;;;;;;;;;;21.94;45.27;99669.25;5007658;28;20012;-76
2023/10/10 11:43:56;;;;;;;;;;;;;;;22.14;44.97;99657.44;5005021;28;19921;-76
2023/10/10 11:46:22;;;;;;;;;;;;;;;22.20;45.08;99661.50;5006126;28;20412;-76
2023/10/10 11:48:47;;;;;;;;;;;;;;;22.16;44.70;99667.22;5005397;28;19948;-76
2023/10/10 11:51:14;;;;;;;;;;;;;;;22.15;45.04;99659.06;5006607;28;20387;-76
2023/10/10 11:53:39;;;;;;;;;;;;;;;22.20;45.23;99672.09;5007151;28;20028;-76
2023/10/10 11:56:11;;;;;;;;;;;;;;;22.38;44.84;99672.03;5006288;28;20020;-76
2023/10/10 11:58:36;;;;;;;;;;;;;;;22.26;44.95;99671.25;5007719;28;19980;-76
2023/10/10 12:01:10;;;;;;;;;;;;;;;22.44;44.74;99667.53;5006192;28;19926;-76
2023/10/10 12:06:19;;;;;;;;;;;;;;;22.13;44.79;99670.88;5005792;28;20090;-76
2023/10/10 12:08:46;;;;;;;;;;;;;;;22.06;45.07;99668.03;5003549;28;20496;-76
2023/10/10 12:11:12;;;;;;;;;;;;;;;22.22;45.31;99676.16;5005928;28;20130;-72
2023/10/10 12:13:38;;;;;;;;;;;;;;;22.22;45.43;99667.63;5008520;28;20436;-72
2023/10/10 12:16:07;;;;;;;;;;;;;;;21.92;45.56;99679.47;5010248;28;19921;-73
2023/10/10 12:18:33;;;;;;;;;;;;;;;22.08;45.44;99676.16;5007547;28;19917;-73
2023/10/10 12:21:01;;;;;;;;;;;;;;;22.09;45.24;99672.91;5005729;28;20396;-73
2023/10/10 12:23:26;;;;;;;;;;;;;;;21.99;45.56;99677.41;5008574;28;19987;-72
2023/10/10 12:25:54;;;;;;;;;;;;;;;21.95;45.21;99678.63;5010766;28;19925;-72
2023/10/10 12:28:19;;;;;;;;;;;;;;;21.81;45.90;99682.28;5009844;28;19921;-71
2023/10/10 12:30:45;;;;;;;;;;;;;;;21.96;45.45;99681.09;5009286;28;19928;-71
2023/10/10 12:33:16;;;;;;;;;;;;;;;21.79;45.94;99682.72;5014713;28;19928;-72
2023/10/10 12:35:46;;;;;;;;;;;;;;;21.78;45.76;99680.28;5003838;28;19940;-75
2023/10/10 12:38:15;;;;;;;;;;;;;;;21.80;45.48;99680.66;5007923;28;19921;-73
2023/10/10 12:40:43;;;;;;;;;;;;;;;21.82;46.03;99678.22;5006805;28;20374;-73
2023/10/10 12:43:11;;;;;;;;;;;;;;;21.81;45.96;99682.28;5009658;28;19980;-73
2023/10/10 12:45:36;;;;;;;;;;;;;;;21.82;45.98;99684.75;5011140;28;20367;-73
2023/10/10 12:48:02;;;;;;;;;;;;;;;21.85;46.09;99685.97;5022190;28;19921;-73
2023/10/10 12:50:29;;;;;;;;;;;;;;;22.00;45.92;99687.56;5009628;28;19921;-74
2023/10/10 12:53:07;;;;;;;;;;;;;;;21.93;45.87;99683.94;5010413;28;20016;-76
2023/10/10 12:55:33;;;;;;;;;;;;;;;21.77;46.26;99693.66;5009880;28;19921;-75
2023/10/10 12:58:04;;;;;;;;;;;;;;;21.99;46.03;99685.97;5010232;28;19965;-76
2023/10/10 13:00:33;;;;;;;;;;;;;;;21.96;45.95;99695.31;5008695;28;19921;-77
2023/10/10 13:02:58;;;;;;;;;;;;;;;21.90;46.47;99690.41;5009831;28;19917;-77
2023/10/10 13:05:27;;;;;;;;;;;;;;;22.09;46.14;99692.84;5009195;28;19929;-76
2023/10/10 13:07:53;;;;;;;;;;;;;;;21.95;46.54;99690.03;5008182;28;19925;-74
2023/10/10 13:10:18;;;;;;;;;;;;;;;22.07;46.17;99686.75;5011274;28;19914;-74
2023/10/10 13:12:51;;;;;;;;;;;;;;;21.89;46.60;99698.16;5005543;28;19926;-74
2023/10/10 13:15:18;;;;;;;;;;;;;;;21.56;46.97;99697.31;5009480;28;20462;-74
2023/10/10 13:20:41;;;;;;;;;;;;;;;21.63;47.81;99703.00;4990240;28;19925;-77
2023/10/10 13:23:07;;;;;;;;;;;;;;;21.86;48.14;99693.28;5007529;28;19918;-76
2023/10/10 13:25:41;;;;;;;;;;;;;;;21.79;48.18;99688.41;5008437;28;20416;-76
2023/10/10 13:28:09;;;;;;;;;;;;;;;21.62;47.83;99703.41;5007998;28;19926;-76
2023/10/10 13:30:46;;;;;;;;;;;;;;;21.45;48.25;99706.63;5009299;28;19917;-78
2023/10/10 13:33:15;;;;;;;;;;;;;;;21.44;48.21;99713.53;5000066;28;20005;-77
2023/10/10 13:35:41;;;;;;;;;;;;;;;21.37;48.57;99710.69;5022696;28;19918;-77
2023/10/10 13:38:07;;;;;;;;;;;;;;;21.25;48.78;99708.25;5010196;28;20348;-75
2023/10/10 13:40:45;;;;;;;;;;;;;;;21.11;49.75;99709.81;5011484;28;19967;-76
2023/10/10 13:43:15;;;;;;;;;;;;;;;20.96;49.66;99708.97;5008926;28;19956;-75
2023/10/10 13:45:41;;;;;;;;;;;;;;;20.66;50.91;99720.59;5012165;28;19975;-80
2023/10/10 13:48:08;;;;;;;;;;;;;;;20.60;51.39;99722.97;5011382;28;19917;-76
2023/10/10 13:50:42;;;;;;;;;;;;;;;20.49;51.74;99722.91;5010047;28;19928;-73
2023/10/10 13:53:14;;;;;;;;;;;;;;;20.45;52.28;99722.09;5009201;28;20329;-75
2023/10/10 13:55:43;;;;;;;;;;;;;;;20.47;52.48;99720.47;5009581;28;19925;-76
2023/10/10 13:58:11;;;;;;;;;;;;;;;20.54;52.30;99718.88;5009090;28;19979;-71
2023/10/10 14:00:37;;;;;;;;;;;;;;;20.47;52.60;99714.81;5004429;28;19917;-74
2023/10/10 14:03:03;;;;;;;;;;;;;;;20.58;52.56;99714.06;5003479;28;20384;-74
2023/10/10 14:05:29;;;;;;;;;;;;;;;20.41;53.21;99719.22;5008798;28;19925;-74
2023/10/10 14:07:58;;;;;;;;;;;;;;;20.38;53.39;99719.19;5009402;28;20471;-74
2023/10/10 14:10:23;;;;;;;;;;;;;;;20.50;53.18;99718.06;5009775;28;20016;-75
2023/10/10 14:12:50;;;;;;;;;;;;;;;20.45;53.21;99717.22;5006114;28;20012;-77
2023/10/10 14:15:18;;;;;;;;;;;;;;;20.46;52.91;99720.88;5009171;28;20392;-75
2023/10/10 14:17:46;;;;;;;;;;;;;;;20.51;53.27;99714.78;5010819;28;20012;-75
2023/10/10 14:20:20;;;;;;;;;;;;;;;20.54;53.59;99718.88;5009062;28;19918;-75
2023/10/10 14:22:46;;;;;;;;;;;;;;;20.62;53.98;99726.25;5009089;28;20027;-75
2023/10/10 14:25:12;;;;;;;;;;;;;;;20.58;53.94;99720.53;5007313;28;20020;-75
2023/10/10 14:27:39;;;;;;;;;;;;;;;20.48;54.54;99715.59;5010298;28;20016;-75
2023/10/10 14:30:06;;;;;;;;;;;;;;;20.58;54.81;99714.06;5009272;28;20661;-75
2023/10/10 14:32:32;;;;;;;;;;;;;;;20.56;55.30;99720.13;5007353;28;19921;-75
2023/10/10 14:34:58;;;;;;;;;;;;;;;20.45;55.77;99720.06;5005912;28;19928;-77
2023/10/10 14:37:23;;;;;;;;;;;;;;;20.39;55.75;99735.00;4998504;28;19918;-76
2023/10/10 14:39:51;;;;;;;;;;;;;;;20.41;55.93;99732.63;5006024;28;19950;-76
2023/10/10 14:42:16;;;;;;;;;;;;;;;20.38;55.66;99733.38;5028340;28;19943;-76
2023/10/10 14:44:42;;;;;;;;;;;;;;;20.38;55.61;99733.38;5008706;28;19922;-76
2023/10/10 14:47:09;;;;;;;;;;;;;;;20.44;55.65;99737.50;5006508;28;19926;-76
2023/10/10 14:49:38;;;;;;;;;;;;;;;20.42;55.85;99737.09;5010129;28;19921;-75
2023/10/10 14:52:04;;;;;;;;;;;;;;;20.46;56.14;99740.75;5013331;28;19914;-76
2023/10/10 14:54:30;;;;;;;;;;;;;;;20.57;56.03;99738.78;5005322;28;19925;-73
2023/10/10 14:56:56;;;;;;;;;;;;;;;20.76;55.72;99736.88;5008422;28;19918;-72
2023/10/10 14:59:25;;;;;;;;;;;;;;;20.82;55.56;99752.34;5007472;28;20293;-73
2023/10/10 15:01:55;;;;;;;;;;;;;;;20.76;55.76;99753.94;5008619;28;19929;-73
2023/10/10 15:04:21;;;;;;;;;;;;;;;20.82;55.50;99752.34;5008316;28;19918;-72
2023/10/10 15:06:54;;;;;;;;;;;;;;;20.83;55.67;99767.38;5009198;28;19948;-73
2023/10/10 15:09:20;;;;;;;;;;;;;;;20.92;55.42;99767.00;5024772;28;19924;-70
2023/10/10 15:11:46;;;;;;;;;;;;;;;20.90;55.53;99770.25;5008085;28;19932;-73
2023/10/10 15:14:12;;;;;;;;;;;;;;;20.96;55.38;99771.50;5019645;28;19960;-73
2023/10/10 15:16:38;;;;;;;;;;;;;;;21.01;55.45;99778.84;5008208;28;20386;-72
2023/10/10 15:19:06;;;;;;;;;;;;;;;21.11;55.09;99772.38;5008418;28;19972;-73
2023/10/10 15:21:35;;;;;;;;;;;;;;;21.09;55.19;99780.47;5001664;28;20769;-72
2023/10/10 15:24:01;;;;;;;;;;;;;;;21.00;55.60;99780.06;4998818;28;20352;-71
2023/10/10 15:26:27;;;;;;;;;;;;;;;21.11;55.23;99782.94;5005591;28;20027;-72
2023/10/10 15:28:52;;;;;;;;;;;;;;;21.02;55.23;99792.66;5000039;28;19929;-73
2023/10/10 15:31:24;;;;;;;;;;;;;;;21.13;54.93;99789.03;5005024;28;19921;-72
2023/10/10 15:33:50;;;;;;;;;;;;;;;21.20;54.58;99789.06;5009660;28;19913;-72
2023/10/10 15:36:18;;;;;;;;;;;;;;;21.19;54.46;99793.13;5002556;28;19924;-73
2023/10/10 15:38:43;;;;;;;;;;;;;;;21.25;54.23;99790.72;5010681;28;19922;-73
2023/10/10 15:41:19;;;;;;;;;;;;;;;21.24;54.09;99794.78;5008337;28;20006;-73
2023/10/10 15:43:47;;;;;;;;;;;;;;;21.08;54.60;99798.75;5006189;28;20352;-73